createdAt,value
2022-12-27T00:01:18.975Z,6.47
2022-12-27T00:04:41.031Z,6.55
2022-12-27T00:08:14.877Z,6.56
2022-12-27T00:11:56.280Z,6.48
2022-12-27T00:15:23.519Z,6.48
2022-12-27T00:18:57.916Z,6.65
2022-12-27T00:22:23.120Z,6.80
2022-12-27T00:25:45.004Z,6.84
2022-12-27T00:29:10.534Z,6.96
2022-12-27T00:32:33.448Z,6.95
2022-12-27T00:36:21.817Z,6.90
2022-12-27T00:40:24.059Z,6.61
2022-12-27T00:43:56.489Z,6.45
2022-12-27T00:47:26.514Z,6.42
2022-12-27T00:50:49.159Z,6.40
2022-12-27T00:54:26.591Z,6.28
2022-12-27T00:57:48.603Z,6.15
2022-12-27T01:01:24.401Z,6.29
2022-12-27T01:05:22.299Z,6.13
2022-12-27T01:08:56.697Z,6.16
2022-12-27T01:12:35.927Z,6.23
2022-12-27T01:16:24.523Z,5.96
2022-12-27T01:19:46.434Z,5.98
2022-12-27T01:23:27.615Z,6.01
2022-12-27T01:26:51.527Z,5.89
2022-12-27T01:30:13.536Z,5.91
2022-12-27T01:33:35.476Z,5.90
2022-12-27T01:37:23.135Z,5.92
2022-12-27T01:40:45.017Z,5.82
2022-12-27T01:44:39.151Z,5.88
2022-12-27T01:48:27.232Z,5.77
2022-12-27T01:52:02.165Z,5.62
2022-12-27T01:55:27.088Z,5.72
2022-12-27T01:58:56.402Z,5.68
2022-12-27T02:02:32.555Z,5.64
2022-12-27T02:05:56.492Z,5.57
2022-12-27T02:09:52.252Z,5.50
2022-12-27T02:13:19.577Z,5.42
2022-12-27T02:16:42.556Z,5.48
2022-12-27T02:20:40.654Z,5.58
2022-12-27T02:25:00.963Z,5.56
2022-12-27T02:28:45.139Z,5.43
2022-12-27T02:32:36.287Z,5.44
2022-12-27T02:36:11.836Z,5.42
2022-12-27T02:39:39.328Z,5.42
2022-12-27T02:43:24.643Z,5.36
2022-12-27T02:47:07.646Z,5.35
2022-12-27T02:51:42.613Z,5.24
2022-12-27T02:55:24.003Z,4.97
2022-12-27T02:59:34.355Z,5.15
2022-12-27T03:03:31.493Z,4.90
2022-12-27T03:07:27.116Z,4.89
2022-12-27T03:11:18.974Z,5.02
2022-12-27T03:15:07.812Z,5.02
2022-12-27T03:19:11.343Z,5.06
2022-12-27T03:23:05.407Z,4.95
2022-12-27T03:26:35.531Z,4.87
2022-12-27T03:30:29.133Z,4.90
2022-12-27T03:34:27.893Z,4.94
2022-12-27T03:38:04.169Z,5.04
2022-12-27T03:41:57.578Z,4.97
2022-12-27T03:46:14.511Z,5.02
2022-12-27T03:49:50.221Z,4.87
2022-12-27T03:53:47.014Z,4.91
2022-12-27T03:57:22.150Z,4.95
2022-12-27T04:00:43.991Z,4.73
2022-12-27T04:04:12.096Z,4.64
2022-12-27T04:07:37.155Z,4.67
2022-12-27T04:11:28.444Z,4.78
2022-12-27T04:15:16.230Z,4.65
2022-12-27T04:18:58.705Z,4.65
2022-12-27T04:22:38.975Z,4.66
2022-12-27T04:26:32.496Z,4.70
2022-12-27T04:30:20.750Z,4.57
2022-12-27T04:34:19.410Z,4.53
2022-12-27T04:37:49.486Z,4.60
2022-12-27T04:41:38.938Z,4.61
2022-12-27T04:45:20.487Z,4.49
2022-12-27T04:49:09.759Z,4.09
2022-12-27T04:52:53.276Z,4.36
2022-12-27T04:56:29.360Z,4.86
2022-12-27T05:00:28.548Z,4.94
2022-12-27T05:03:52.954Z,5.06
2022-12-27T05:07:36.231Z,5.11
2022-12-27T05:11:17.975Z,5.03
2022-12-27T05:14:45.198Z,5.13
2022-12-27T05:18:08.072Z,5.09
2022-12-27T05:21:39.576Z,5.24
2022-12-27T05:25:20.775Z,5.31
2022-12-27T05:28:42.683Z,5.33
2022-12-27T05:32:13.645Z,5.32
2022-12-27T05:35:50.050Z,5.07
2022-12-27T05:39:23.900Z,4.82
2022-12-27T05:42:53.525Z,4.89
2022-12-27T05:46:20.754Z,5.09
2022-12-27T05:49:52.138Z,5.16
2022-12-27T05:53:17.196Z,5.41
2022-12-27T05:57:09.897Z,5.49
2022-12-27T06:00:36.716Z,5.42
2022-12-27T06:04:00.753Z,5.17
2022-12-27T06:07:25.694Z,4.85
2022-12-27T06:10:49.592Z,4.70
2022-12-27T06:14:15.479Z,4.71
2022-12-27T06:17:39.403Z,4.61
2022-12-27T06:21:06.661Z,4.55
2022-12-27T06:24:36.589Z,4.78
2022-12-27T06:27:58.644Z,4.87
2022-12-27T06:31:23.548Z,5.19
2022-12-27T06:34:47.368Z,5.34
2022-12-27T06:38:11.294Z,5.67
2022-12-27T06:41:40.197Z,5.85
2022-12-27T06:45:12.074Z,5.96
2022-12-27T06:48:34.135Z,6.11
2022-12-27T06:51:59.777Z,6.23
2022-12-27T06:55:21.879Z,6.31
2022-12-27T06:58:44.943Z,6.42
2022-12-27T07:02:07.106Z,6.43
2022-12-27T07:05:29.064Z,6.51
2022-12-27T07:08:51.827Z,6.49
2022-12-27T07:12:19.496Z,6.62
2022-12-27T07:15:59.979Z,6.77
2022-12-27T07:19:22.784Z,6.64
2022-12-27T07:22:46.738Z,6.79
2022-12-27T07:26:29.988Z,6.83
2022-12-27T07:29:53.241Z,6.90
2022-12-27T07:33:15.102Z,7.02
2022-12-27T07:36:40.708Z,7.07
2022-12-27T07:40:16.020Z,7.09
2022-12-27T07:43:43.559Z,7.06
2022-12-27T07:47:09.551Z,7.13
2022-12-27T07:50:32.655Z,7.09
2022-12-27T07:54:01.341Z,7.07
2022-12-27T07:57:30.488Z,7.14
2022-12-27T08:01:00.369Z,7.26
2022-12-27T08:04:22.288Z,7.26
2022-12-27T08:07:45.244Z,7.05
2022-12-27T08:11:08.469Z,7.25
2022-12-27T08:14:32.298Z,7.29
2022-12-27T08:18:03.502Z,7.22
2022-12-27T08:21:36.541Z,7.31
2022-12-27T08:24:59.398Z,7.23
2022-12-27T08:28:22.247Z,7.35
2022-12-27T08:31:51.327Z,7.32
2022-12-27T08:35:50.808Z,7.38
2022-12-27T08:39:00.301Z,7.55
2022-12-27T08:42:28.959Z,7.51
2022-12-27T08:46:15.515Z,7.46
2022-12-27T08:49:38.586Z,7.50
2022-12-27T08:53:05.893Z,7.59
2022-12-27T08:56:38.236Z,7.60
2022-12-27T09:00:00.467Z,7.58
2022-12-27T09:03:23.447Z,7.40
2022-12-27T09:06:46.351Z,7.43
2022-12-27T09:10:09.134Z,7.58
2022-12-27T09:13:32.279Z,7.65
2022-12-27T09:16:55.121Z,7.78
2022-12-27T09:20:16.982Z,7.73
2022-12-27T09:23:39.674Z,7.80
2022-12-27T09:27:01.562Z,7.93
2022-12-27T09:30:24.467Z,7.97
2022-12-27T09:33:46.894Z,8.14
2022-12-27T09:37:12.897Z,8.05
2022-12-27T09:40:54.792Z,7.99
2022-12-27T09:44:33.228Z,8.15
2022-12-27T09:48:35.326Z,8.23
2022-12-27T09:52:15.915Z,8.29
2022-12-27T09:55:48.362Z,8.24
2022-12-27T09:59:50.106Z,8.25
2022-12-27T10:03:13.151Z,8.12
2022-12-27T10:06:48.739Z,8.18
2022-12-27T10:10:53.847Z,8.61
2022-12-27T10:14:46.102Z,8.36
2022-12-27T10:19:03.001Z,8.40
2022-12-27T10:22:42.969Z,8.58
2022-12-27T10:26:13.696Z,8.61
2022-12-27T10:29:37.024Z,8.62
2022-12-27T10:33:00.262Z,8.52
2022-12-27T10:36:29.637Z,8.63
2022-12-27T10:39:51.488Z,8.47
2022-12-27T10:43:33.353Z,8.45
2022-12-27T10:46:57.204Z,8.48
2022-12-27T10:50:24.896Z,8.39
2022-12-27T10:53:47.639Z,8.59
2022-12-27T10:57:40.667Z,8.36
2022-12-27T11:01:23.191Z,8.61
2022-12-27T11:05:02.423Z,8.61
2022-12-27T11:08:24.856Z,8.69
2022-12-27T11:12:17.811Z,8.81
2022-12-27T11:15:58.674Z,8.67
2022-12-27T11:19:27.756Z,8.59
2022-12-27T11:22:57.742Z,8.60
2022-12-27T11:26:31.381Z,8.51
2022-12-27T11:30:07.466Z,8.42
2022-12-27T11:33:39.256Z,8.22
2022-12-27T11:37:14.278Z,8.18
2022-12-27T11:40:36.543Z,8.29
2022-12-27T11:44:26.813Z,8.35
2022-12-27T11:47:59.315Z,8.47
2022-12-27T11:51:48.896Z,8.71
2022-12-27T11:55:42.671Z,8.72
2022-12-27T11:59:45.359Z,8.66
2022-12-27T12:03:49.527Z,8.41
2022-12-27T12:07:39.303Z,8.41
2022-12-27T12:12:00.773Z,8.34
2022-12-27T12:15:38.050Z,8.31
2022-12-27T12:19:56.060Z,8.36
2022-12-27T12:23:53.626Z,8.21
2022-12-27T12:27:27.606Z,8.18
2022-12-27T12:31:25.286Z,8.29
2022-12-27T12:35:07.225Z,8.27
2022-12-27T12:38:47.055Z,8.29
2022-12-27T12:42:54.784Z,8.45
2022-12-27T12:46:49.954Z,8.39
2022-12-27T12:51:15.366Z,8.39
2022-12-27T12:55:03.196Z,8.63
2022-12-27T12:58:51.746Z,8.57
2022-12-27T13:02:57.968Z,8.68
2022-12-27T13:07:06.826Z,9.08
2022-12-27T13:11:08.659Z,9.20
2022-12-27T13:15:23.396Z,9.19
2022-12-27T13:19:29.947Z,9.11
2022-12-27T13:23:13.834Z,9.01
2022-12-27T13:26:56.130Z,9.15
2022-12-27T13:30:59.992Z,9.40
2022-12-27T13:34:48.324Z,9.74
2022-12-27T13:38:27.517Z,9.76
2022-12-27T13:42:18.936Z,9.59
2022-12-27T13:46:07.246Z,9.90
2022-12-27T13:49:50.343Z,9.89
2022-12-27T13:53:59.330Z,9.65
2022-12-27T13:58:46.186Z,9.65
2022-12-27T14:03:23.663Z,9.84
2022-12-27T14:07:44.388Z,9.75
2022-12-27T14:11:43.573Z,9.69
2022-12-27T14:15:32.157Z,9.86
2022-12-27T14:19:32.119Z,9.92
2022-12-27T14:23:08.875Z,9.54
2022-12-27T14:27:39.757Z,9.51
2022-12-27T14:31:54.274Z,9.70
2022-12-27T14:36:03.662Z,9.58
2022-12-27T14:39:50.573Z,9.59
2022-12-27T14:43:57.456Z,9.70
2022-12-27T14:48:23.804Z,9.86
2022-12-27T14:52:12.641Z,9.71
2022-12-27T14:55:49.882Z,9.66
2022-12-27T14:59:25.677Z,9.62
2022-12-27T15:03:34.727Z,9.42
2022-12-27T15:07:43.461Z,9.41
2022-12-27T15:11:45.777Z,9.46
2022-12-27T15:16:13.273Z,9.45
2022-12-27T15:19:49.401Z,9.37
2022-12-27T15:23:40.890Z,9.30
2022-12-27T15:27:32.800Z,9.01
2022-12-27T15:31:37.413Z,8.73
2022-12-27T15:35:29.903Z,8.46
2022-12-27T15:39:35.318Z,8.06
2022-12-27T15:43:54.623Z,7.84
2022-12-27T15:48:09.906Z,7.53
2022-12-27T15:52:00.207Z,7.39
2022-12-27T15:56:15.620Z,7.39
2022-12-27T15:59:53.155Z,7.18
2022-12-27T16:03:35.494Z,7.15
2022-12-27T16:07:03.877Z,7.09
2022-12-27T16:10:49.922Z,7.04
2022-12-27T16:14:40.437Z,6.96
2022-12-27T16:18:03.839Z,6.74
2022-12-27T16:21:36.439Z,7.24
2022-12-27T16:25:37.138Z,7.14
2022-12-27T16:29:14.466Z,7.02
2022-12-27T16:32:49.983Z,7.03
2022-12-27T16:36:11.797Z,7.01
2022-12-27T16:39:38.339Z,7.11
2022-12-27T16:43:10.064Z,7.03
2022-12-27T16:47:07.316Z,6.77
2022-12-27T16:51:16.528Z,6.74
2022-12-27T16:55:11.821Z,6.78
2022-12-27T16:58:38.623Z,6.67
2022-12-27T17:02:01.117Z,6.60
2022-12-27T17:05:36.903Z,6.53
2022-12-27T17:09:11.005Z,6.52
2022-12-27T17:12:35.181Z,6.43
2022-12-27T17:16:19.818Z,6.49
2022-12-27T17:20:14.269Z,6.40
2022-12-27T17:23:43.342Z,6.32
2022-12-27T17:27:56.095Z,6.39
2022-12-27T17:31:47.083Z,6.34
2022-12-27T17:36:25.959Z,6.32
2022-12-27T17:40:28.059Z,6.28
2022-12-27T17:44:39.854Z,6.23
2022-12-27T17:48:35.616Z,6.30
2022-12-27T17:52:18.702Z,6.19
2022-12-27T17:55:59.509Z,6.08
2022-12-27T17:59:29.043Z,6.11
2022-12-27T18:02:58.194Z,5.98
2022-12-27T18:06:21.189Z,6.17
2022-12-27T18:09:55.184Z,6.01
2022-12-27T18:13:23.063Z,5.92
2022-12-27T18:16:50.546Z,5.91
2022-12-27T18:20:28.903Z,6.01
2022-12-27T18:23:55.254Z,6.00
2022-12-27T18:27:23.853Z,5.90
2022-12-27T18:31:28.649Z,5.83
2022-12-27T18:35:02.346Z,5.80
2022-12-27T18:38:41.361Z,5.61
2022-12-27T18:42:16.482Z,5.70
2022-12-27T18:45:38.548Z,5.62
2022-12-27T18:49:02.974Z,5.69
2022-12-27T18:52:38.317Z,5.63
2022-12-27T18:56:03.807Z,5.60
2022-12-27T18:59:30.420Z,5.34
2022-12-27T19:03:12.500Z,5.31
2022-12-27T19:06:34.502Z,5.32
2022-12-27T19:10:04.702Z,5.18
2022-12-27T19:13:50.193Z,5.24
2022-12-27T19:17:32.179Z,5.12
2022-12-27T19:21:01.134Z,5.14
2022-12-27T19:24:32.766Z,5.06
2022-12-27T19:28:02.455Z,4.99
2022-12-27T19:31:24.560Z,5.12
2022-12-27T19:34:52.258Z,4.97
2022-12-27T19:38:23.115Z,5.20
2022-12-27T19:41:45.824Z,5.34
2022-12-27T19:45:14.377Z,5.50
2022-12-27T19:48:43.661Z,5.64
2022-12-27T19:52:24.929Z,5.51
2022-12-27T19:55:55.140Z,5.52
2022-12-27T19:59:24.000Z,5.27
2022-12-27T20:02:53.147Z,5.19
2022-12-27T20:06:26.824Z,5.18
2022-12-27T20:09:57.009Z,5.04
2022-12-27T20:13:19.263Z,4.94
2022-12-27T20:16:44.588Z,5.01
2022-12-27T20:20:07.586Z,5.01
2022-12-27T20:23:37.305Z,5.03
2022-12-27T20:27:00.220Z,5.02
2022-12-27T20:30:30.607Z,5.20
2022-12-27T20:33:56.767Z,5.42
2022-12-27T20:37:25.972Z,5.59
2022-12-27T20:40:51.229Z,5.77
2022-12-27T20:44:15.263Z,5.95
2022-12-27T20:47:44.513Z,5.95
2022-12-27T20:51:13.279Z,5.96
2022-12-27T20:54:36.992Z,5.87
2022-12-27T20:58:00.244Z,5.62
2022-12-27T21:01:25.546Z,5.48
2022-12-27T21:04:52.695Z,5.38
2022-12-27T21:08:14.578Z,5.15
2022-12-27T21:11:40.749Z,5.18
2022-12-27T21:15:08.546Z,5.42
2022-12-27T21:18:34.223Z,5.33
2022-12-27T21:21:58.159Z,5.51
2022-12-27T21:25:22.569Z,5.79
2022-12-27T21:28:55.097Z,5.86
2022-12-27T21:32:17.948Z,6.00
2022-12-27T21:35:42.956Z,6.28
2022-12-27T21:39:06.734Z,6.47
2022-12-27T21:42:29.576Z,6.49
2022-12-27T21:45:54.693Z,6.82
2022-12-27T21:49:16.711Z,6.82
2022-12-27T21:52:38.587Z,7.00
2022-12-27T21:56:00.797Z,7.02
2022-12-27T21:59:24.726Z,6.96
2022-12-27T22:02:46.763Z,7.09
2022-12-27T22:06:19.236Z,7.12
2022-12-27T22:09:43.180Z,7.03
2022-12-27T22:13:07.147Z,7.04
2022-12-27T22:16:38.626Z,6.95
2022-12-27T22:20:04.852Z,7.06
2022-12-27T22:23:42.414Z,6.98
2022-12-27T22:27:05.383Z,7.03
2022-12-27T22:30:33.641Z,6.97
2022-12-27T22:34:04.150Z,6.96
2022-12-27T22:37:27.119Z,7.09
2022-12-27T22:40:50.224Z,7.10
2022-12-27T22:44:15.124Z,7.34
2022-12-27T22:47:39.062Z,7.31
2022-12-27T22:51:16.727Z,7.35
2022-12-27T22:55:05.958Z,7.38
2022-12-27T22:58:31.700Z,7.35
2022-12-27T23:02:06.131Z,7.30
2022-12-27T23:05:36.316Z,7.12
2022-12-27T23:08:59.877Z,7.20
2022-12-27T23:12:38.894Z,7.21
2022-12-27T23:16:03.451Z,7.14
2022-12-27T23:19:39.157Z,7.22
2022-12-27T23:23:01.057Z,7.19
2022-12-27T23:26:26.874Z,7.29
2022-12-27T23:29:49.694Z,7.29
2022-12-27T23:33:21.347Z,7.19
2022-12-27T23:36:51.306Z,6.89
2022-12-27T23:40:21.349Z,7.21
2022-12-27T23:43:55.268Z,7.15
2022-12-27T23:47:17.910Z,6.94
2022-12-27T23:50:56.180Z,6.90
2022-12-27T23:54:18.037Z,6.97
2022-12-27T23:57:43.006Z,6.99
